Time;durP1;ratioP1;P1;durP2;ratioP2;P2;SDS_P1;SDS_P2;PMS_P1;PMS_P2;Temp;Humidity;BMP_temperature;BMP_pressure;BME280_temperature;BME280_humidity;BME280_pressure;Samples;Min_cycle;Max_cycle;Signal;HPM_P1;HPM_P2
2023/06/13 00:02:04;;;;;;;8.48;5.28;;;;;;;;;;5014948;28;20540;-75
2023/06/13 00:04:30;;;;;;;10.70;5.35;;;;;;;;;;4993683;28;20101;-74
2023/06/13 00:06:57;;;;;;;8.43;5.53;;;;;;;;;;4993050;28;20056;-75
2023/06/13 00:09:24;;;;;;;8.02;5.70;;;;;;;;;;4992724;28;20028;-75
2023/06/13 00:11:51;;;;;;;10.15;6.15;;;;;;;;;;4992345;28;20031;-76
2023/06/13 00:14:17;;;;;;;17.10;6.32;;;;;;;;;;4994127;28;20192;-75
2023/06/13 00:16:43;;;;;;;11.30;6.03;;;;;;;;;;4992451;28;20037;-75
2023/06/13 00:19:13;;;;;;;7.75;5.38;;;;;;;;;;4993555;28;20030;-75
2023/06/13 00:21:40;;;;;;;9.18;5.85;;;;;;;;;;4992683;28;20026;-75
2023/06/13 00:24:06;;;;;;;9.45;6.53;;;;;;;;;;4994194;28;20045;-75
2023/06/13 00:26:34;;;;;;;8.80;6.05;;;;;;;;;;4993593;28;20030;-73
2023/06/13 00:29:00;;;;;;;7.43;5.45;;;;;;;;;;4993225;28;20034;-75
2023/06/13 00:31:29;;;;;;;8.50;6.22;;;;;;;;;;4993726;28;20156;-74
2023/06/13 00:33:59;;;;;;;8.35;5.47;;;;;;;;;;4992762;28;20030;-75
2023/06/13 00:36:27;;;;;;;8.23;6.30;;;;;;;;;;4992764;28;20474;-75
2023/06/13 00:38:57;;;;;;;10.90;6.47;;;;;;;;;;4992000;28;20117;-75
2023/06/13 00:41:26;;;;;;;9.00;5.82;;;;;;;;;;4991560;28;20034;-74
2023/06/13 00:43:52;;;;;;;7.93;6.00;;;;;;;;;;4992200;28;20038;-75
2023/06/13 00:46:28;;;;;;;9.45;5.82;;;;;;;;;;4992571;28;20125;-75
2023/06/13 00:48:58;;;;;;;9.10;6.05;;;;;;;;;;4991216;28;20524;-76
2023/06/13 00:51:27;;;;;;;10.73;5.22;;;;;;;;;;4991305;28;20050;-74
2023/06/13 00:53:58;;;;;;;8.35;5.70;;;;;;;;;;4991464;28;20031;-75
2023/06/13 00:56:24;;;;;;;8.18;5.82;;;;;;;;;;4979528;28;20047;-75
2023/06/13 00:58:54;;;;;;;9.60;6.07;;;;;;;;;;4994485;28;20034;-76
2023/06/13 01:01:22;;;;;;;12.07;6.22;;;;;;;;;;4996449;28;20134;-75
2023/06/13 01:03:52;;;;;;;11.90;6.40;;;;;;;;;;4996375;28;20053;-74
2023/06/13 01:06:18;;;;;;;8.70;6.00;;;;;;;;;;4995439;28;20058;-75
2023/06/13 01:08:48;;;;;;;11.32;6.35;;;;;;;;;;4996121;28;20029;-75
2023/06/13 01:11:35;;;;;;;7.68;6.03;;;;;;;;;;4979041;28;20058;-74
2023/06/13 01:14:15;;;;;;;8.88;7.75;;;;;;;;;;4996125;28;20042;-76
2023/06/13 01:16:48;;;;;;;9.88;6.40;;;;;;;;;;4994128;28;20034;-76
2023/06/13 01:19:37;;;;;;;6.95;6.25;;;;;;;;;;4995200;28;20364;-74
2023/06/13 01:22:08;;;;;;;6.75;5.60;;;;;;;;;;4993736;28;20228;-75
2023/06/13 01:24:56;;;;;;;11.07;6.72;;;;;;;;;;4993877;28;20034;-75
2023/06/13 01:27:23;;;;;;;9.82;6.60;;;;;;;;;;4993525;28;20030;-74
2023/06/13 01:29:52;;;;;;;8.50;6.00;;;;;;;;;;4995257;28;20042;-75
2023/06/13 01:32:20;;;;;;;11.70;5.47;;;;;;;;;;4993943;28;20030;-75
2023/06/13 01:34:47;;;;;;;9.15;6.43;;;;;;;;;;4993858;28;20117;-74
2023/06/13 01:37:13;;;;;;;9.52;5.70;;;;;;;;;;4993860;28;20026;-75
2023/06/13 01:39:38;;;;;;;11.02;6.30;;;;;;;;;;4993918;28;20050;-75
2023/06/13 01:42:04;;;;;;;8.40;5.72;;;;;;;;;;4994247;28;20100;-75
2023/06/13 01:44:31;;;;;;;8.23;6.40;;;;;;;;;;4993904;28;20501;-76
2023/06/13 01:47:13;;;;;;;7.63;5.50;;;;;;;;;;4993833;28;20034;-76
2023/06/13 01:49:44;;;;;;;10.18;6.22;;;;;;;;;;4995415;28;20027;-75
2023/06/13 01:52:13;;;;;;;8.15;6.15;;;;;;;;;;4994296;28;20022;-75
2023/06/13 01:54:47;;;;;;;12.18;6.93;;;;;;;;;;4993544;28;20030;-75
2023/06/13 01:57:16;;;;;;;8.25;5.57;;;;;;;;;;4978383;28;20481;-76
2023/06/13 01:59:43;;;;;;;8.23;5.93;;;;;;;;;;4993960;28;20026;-75
2023/06/13 02:02:12;;;;;;;6.90;6.05;;;;;;;;;;4993959;28;20030;-75
2023/06/13 02:04:43;;;;;;;11.02;6.13;;;;;;;;;;4993564;28;20054;-75
2023/06/13 02:07:12;;;;;;;11.23;5.68;;;;;;;;;;4992283;28;20038;-74
2023/06/13 02:09:38;;;;;;;9.20;5.95;;;;;;;;;;4993599;28;20068;-76
2023/06/13 02:12:06;;;;;;;14.23;6.50;;;;;;;;;;4994960;28;20530;-75
2023/06/13 02:14:32;;;;;;;11.43;6.43;;;;;;;;;;4994730;28;20064;-74
2023/06/13 02:16:59;;;;;;;11.13;6.28;;;;;;;;;;4994246;28;20026;-75
2023/06/13 02:19:26;;;;;;;10.60;6.13;;;;;;;;;;4994276;28;20498;-75
2023/06/13 02:21:52;;;;;;;7.07;5.97;;;;;;;;;;4992807;28;20029;-75
2023/06/13 02:24:18;;;;;;;7.05;5.55;;;;;;;;;;4993308;28;20041;-75
2023/06/13 02:26:45;;;;;;;7.65;6.15;;;;;;;;;;4980929;28;20027;-75
2023/06/13 02:29:12;;;;;;;11.73;5.93;;;;;;;;;;4972894;28;20042;-75
2023/06/13 02:31:38;;;;;;;8.80;5.63;;;;;;;;;;4973047;28;20030;-74
2023/06/13 02:34:07;;;;;;;11.15;7.25;;;;;;;;;;4973909;28;20034;-76
2023/06/13 02:36:32;;;;;;;10.95;6.57;;;;;;;;;;4973506;28;20031;-76
2023/06/13 02:39:03;;;;;;;8.50;5.70;;;;;;;;;;4974129;28;20114;-74
2023/06/13 02:41:29;;;;;;;8.43;5.82;;;;;;;;;;4975395;28;20175;-74
2023/06/13 02:43:54;;;;;;;8.00;5.63;;;;;;;;;;4977855;28;20489;-76
2023/06/13 02:46:20;;;;;;;8.55;5.82;;;;;;;;;;4985909;28;20062;-75
2023/06/13 02:48:46;;;;;;;10.10;5.68;;;;;;;;;;5001201;28;20031;-74
2023/06/13 02:51:15;;;;;;;9.00;6.00;;;;;;;;;;4998790;28;20306;-74
2023/06/13 02:53:43;;;;;;;10.38;6.43;;;;;;;;;;4984118;28;20027;-77
2023/06/13 02:56:12;;;;;;;11.73;5.82;;;;;;;;;;4978733;28;20546;-76
2023/06/13 02:58:38;;;;;;;8.77;6.80;;;;;;;;;;4992999;28;20113;-76
2023/06/13 03:01:04;;;;;;;8.82;6.07;;;;;;;;;;4989496;28;20073;-75
2023/06/13 03:03:29;;;;;;;7.43;5.78;;;;;;;;;;4973149;28;20031;-76
2023/06/13 03:05:59;;;;;;;11.40;6.68;;;;;;;;;;4992496;28;20074;-75
2023/06/13 03:08:26;;;;;;;8.35;6.22;;;;;;;;;;5014782;28;20350;-75
2023/06/13 03:10:53;;;;;;;9.32;6.63;;;;;;;;;;4997560;28;20364;-76
2023/06/13 03:13:19;;;;;;;12.35;6.55;;;;;;;;;;4996691;28;20063;-74
2023/06/13 03:15:47;;;;;;;10.15;6.53;;;;;;;;;;4995117;28;20021;-74
2023/06/13 03:18:18;;;;;;;9.40;5.97;;;;;;;;;;4979966;28;20362;-75
2023/06/13 03:20:48;;;;;;;11.30;7.03;;;;;;;;;;4997127;28;20030;-75
2023/06/13 03:23:15;;;;;;;9.13;6.28;;;;;;;;;;4977836;28;20022;-75
2023/06/13 03:25:41;;;;;;;7.65;5.65;;;;;;;;;;4977766;28;20030;-75
2023/06/13 03:28:07;;;;;;;11.18;6.40;;;;;;;;;;4995960;28;20037;-75
2023/06/13 03:30:34;;;;;;;11.15;6.80;;;;;;;;;;4981107;28;20034;-75
2023/06/13 03:33:02;;;;;;;13.07;6.90;;;;;;;;;;4978377;28;20026;-75
2023/06/13 03:35:34;;;;;;;8.63;6.75;;;;;;;;;;4994500;28;20382;-75
2023/06/13 03:38:00;;;;;;;9.48;6.20;;;;;;;;;;4977087;28;20037;-76
2023/06/13 03:40:25;;;;;;;8.02;6.63;;;;;;;;;;4995595;28;20022;-74
2023/06/13 03:42:51;;;;;;;11.63;7.25;;;;;;;;;;4978134;28;20333;-75
2023/06/13 03:45:18;;;;;;;11.93;6.97;;;;;;;;;;4977939;28;20084;-74
2023/06/13 03:47:44;;;;;;;9.05;6.85;;;;;;;;;;4995620;28;20139;-75
2023/06/13 03:50:14;;;;;;;8.70;6.90;;;;;;;;;;4995854;28;20030;-75
2023/06/13 03:52:42;;;;;;;13.77;7.78;;;;;;;;;;4995697;28;20025;-76
2023/06/13 03:55:08;;;;;;;13.68;7.72;;;;;;;;;;4976811;28;20048;-76
2023/06/13 03:57:34;;;;;;;9.63;6.85;;;;;;;;;;4994548;28;20404;-76
2023/06/13 04:00:00;;;;;;;10.10;6.93;;;;;;;;;;4994892;28;20041;-77
2023/06/13 04:02:34;;;;;;;11.90;7.03;;;;;;;;;;4977244;28;20027;-75
2023/06/13 04:05:03;;;;;;;14.82;6.80;;;;;;;;;;4977230;28;20513;-76
2023/06/13 04:07:38;;;;;;;11.98;6.20;;;;;;;;;;4977734;28;20685;-76
2023/06/13 04:10:08;;;;;;;8.27;6.40;;;;;;;;;;4976672;28;20041;-74
2023/06/13 04:12:33;;;;;;;14.05;6.35;;;;;;;;;;4975933;28;20053;-75
2023/06/13 04:14:59;;;;;;;10.48;6.28;;;;;;;;;;4975623;28;20038;-75
2023/06/13 04:17:25;;;;;;;15.00;7.13;;;;;;;;;;4994263;28;20026;-75
2023/06/13 04:19:52;;;;;;;13.32;7.15;;;;;;;;;;4992666;28;20038;-76
2023/06/13 04:22:19;;;;;;;11.10;6.35;;;;;;;;;;4976322;28;20030;-76
2023/06/13 04:24:50;;;;;;;10.85;6.82;;;;;;;;;;4994005;28;20131;-75
2023/06/13 04:27:19;;;;;;;28.70;9.45;;;;;;;;;;4975948;28;20503;-76
2023/06/13 04:29:49;;;;;;;13.50;6.65;;;;;;;;;;4975638;28;20037;-76
2023/06/13 04:32:18;;;;;;;10.40;7.20;;;;;;;;;;4977223;28;20042;-76
2023/06/13 04:34:55;;;;;;;11.38;7.20;;;;;;;;;;4963234;28;20026;-76
2023/06/13 04:37:32;;;;;;;9.30;6.65;;;;;;;;;;4994257;28;20030;-76
2023/06/13 04:40:03;;;;;;;9.32;6.85;;;;;;;;;;4977152;28;20283;-76
2023/06/13 04:42:32;;;;;;;8.45;6.90;;;;;;;;;;4977427;28;20036;-76
2023/06/13 04:44:58;;;;;;;10.43;6.55;;;;;;;;;;4993953;28;20039;-75
2023/06/13 04:47:30;;;;;;;11.50;6.78;;;;;;;;;;4976589;28;20033;-76
2023/06/13 04:50:00;;;;;;;6.82;5.75;;;;;;;;;;4976253;28;20027;-76
2023/06/13 04:52:35;;;;;;;10.15;6.57;;;;;;;;;;4994991;28;20084;-75
2023/06/13 04:55:02;;;;;;;9.88;6.22;;;;;;;;;;4976468;28;20053;-75
2023/06/13 04:57:34;;;;;;;9.35;6.25;;;;;;;;;;4976027;28;20038;-76
2023/06/13 05:00:10;;;;;;;8.52;6.47;;;;;;;;;;4977929;28;20042;-74
2023/06/13 05:02:38;;;;;;;12.25;7.78;;;;;;;;;;4978274;28;20069;-75
2023/06/13 05:05:05;;;;;;;16.48;7.22;;;;;;;;;;4974697;28;20097;-75
2023/06/13 05:07:31;;;;;;;10.55;6.38;;;;;;;;;;4973544;28;20121;-75
2023/06/13 05:09:57;;;;;;;16.55;8.77;;;;;;;;;;4973591;28;20527;-77
2023/06/13 05:12:22;;;;;;;8.57;6.40;;;;;;;;;;4974103;28;20110;-76
2023/06/13 05:14:48;;;;;;;8.27;6.57;;;;;;;;;;4973075;28;20030;-77
2023/06/13 05:17:16;;;;;;;9.43;7.13;;;;;;;;;;4975414;28;20035;-76
2023/06/13 05:19:43;;;;;;;16.83;7.10;;;;;;;;;;4972854;28;20097;-76
2023/06/13 05:22:09;;;;;;;9.63;6.20;;;;;;;;;;4972428;28;20031;-76
2023/06/13 05:24:38;;;;;;;13.02;6.07;;;;;;;;;;4971703;28;20046;-77
2023/06/13 05:27:04;;;;;;;10.20;5.82;;;;;;;;;;4972834;28;20031;-76
2023/06/13 05:29:38;;;;;;;7.95;5.70;;;;;;;;;;4974476;28;20129;-74
2023/06/13 05:32:05;;;;;;;13.35;6.43;;;;;;;;;;4972053;28;20123;-74
2023/06/13 05:34:46;;;;;;;11.15;6.22;;;;;;;;;;4972859;28;20031;-77
2023/06/13 05:37:12;;;;;;;8.88;5.97;;;;;;;;;;4972576;28;20045;-75
2023/06/13 05:39:39;;;;;;;8.13;6.00;;;;;;;;;;4974752;28;20039;-75
2023/06/13 05:42:11;;;;;;;8.30;6.05;;;;;;;;;;4977320;28;20476;-77
2023/06/13 05:44:37;;;;;;;9.93;6.07;;;;;;;;;;4980912;28;20043;-75
2023/06/13 05:47:04;;;;;;;13.70;6.85;;;;;;;;;;4980009;28;20058;-76
2023/06/13 05:49:39;;;;;;;10.77;6.30;;;;;;;;;;4981482;28;20050;-76
2023/06/13 05:52:06;;;;;;;18.27;7.97;;;;;;;;;;4978548;28;20066;-75
2023/06/13 05:54:35;;;;;;;10.02;5.88;;;;;;;;;;4980004;28;20055;-77
2023/06/13 05:57:00;;;;;;;10.85;6.32;;;;;;;;;;4964167;28;20061;-75
2023/06/13 05:59:29;;;;;;;8.35;7.22;;;;;;;;;;4979875;28;20058;-77
2023/06/13 06:01:58;;;;;;;9.05;5.90;;;;;;;;;;4981803;28;20388;-75
2023/06/13 06:04:27;;;;;;;12.60;7.25;;;;;;;;;;4981723;28;20023;-76
2023/06/13 06:06:53;;;;;;;10.18;6.28;;;;;;;;;;4984124;28;20065;-77
2023/06/13 06:09:19;;;;;;;12.27;7.10;;;;;;;;;;4985126;28;20105;-77
2023/06/13 06:11:51;;;;;;;9.10;6.60;;;;;;;;;;4983398;28;20034;-76
2023/06/13 06:14:17;;;;;;;10.23;6.13;;;;;;;;;;4982420;28;20045;-77
2023/06/13 06:16:45;;;;;;;25.20;7.55;;;;;;;;;;4983399;28;20030;-77
2023/06/13 06:19:13;;;;;;;11.00;6.03;;;;;;;;;;4983549;28;20033;-76
2023/06/13 06:21:39;;;;;;;15.73;7.05;;;;;;;;;;4982560;28;20053;-76
2023/06/13 06:24:08;;;;;;;20.33;7.78;;;;;;;;;;4981767;28;20034;-77
2023/06/13 06:26:34;;;;;;;10.23;6.05;;;;;;;;;;4999751;28;20022;-76
2023/06/13 06:29:00;;;;;;;13.40;5.80;;;;;;;;;;4981478;28;20033;-75
2023/06/13 06:31:27;;;;;;;10.65;7.20;;;;;;;;;;4981651;28;20114;-76
2023/06/13 06:33:53;;;;;;;13.05;5.57;;;;;;;;;;4999759;28;20102;-75
2023/06/13 06:36:24;;;;;;;10.55;5.93;;;;;;;;;;4980892;28;20029;-76
2023/06/13 06:38:50;;;;;;;12.05;5.65;;;;;;;;;;4981543;28;20022;-76
2023/06/13 06:41:21;;;;;;;11.77;6.78;;;;;;;;;;4965809;28;20113;-76
2023/06/13 06:43:52;;;;;;;9.68;6.38;;;;;;;;;;4999351;28;20061;-77
2023/06/13 06:46:18;;;;;;;10.45;5.35;;;;;;;;;;4981485;28;20038;-78
2023/06/13 06:48:44;;;;;;;8.45;4.65;;;;;;;;;;4981853;28;20122;-77
2023/06/13 06:51:14;;;;;;;8.07;5.70;;;;;;;;;;4998762;28;20045;-76
2023/06/13 06:53:44;;;;;;;8.68;5.53;;;;;;;;;;4999765;28;20022;-76
2023/06/13 06:56:13;;;;;;;9.85;5.22;;;;;;;;;;4984929;28;20638;-76
2023/06/13 06:58:45;;;;;;;10.82;4.25;;;;;;;;;;4985229;28;20029;-77
2023/06/13 07:01:26;;;;;;;4.72;3.95;;;;;;;;;;4984527;28;20026;-78
2023/06/13 07:03:52;;;;;;;6.88;2.45;;;;;;;;;;5002069;28;20026;-76
2023/06/13 07:06:32;;;;;;;7.35;3.28;;;;;;;;;;4986522;28;20386;-76
2023/06/13 07:08:58;;;;;;;7.72;3.53;;;;;;;;;;4985500;28;20030;-76
2023/06/13 07:11:24;;;;;;;7.47;3.17;;;;;;;;;;4982874;28;20033;-76
2023/06/13 07:14:07;;;;;;;5.03;3.45;;;;;;;;;;5000132;28;20037;-76
2023/06/13 07:16:41;;;;;;;8.90;3.45;;;;;;;;;;4999344;28;20072;-77
2023/06/13 07:19:11;;;;;;;8.10;2.72;;;;;;;;;;4980614;28;20057;-76
2023/06/13 07:21:37;;;;;;;5.43;2.80;;;;;;;;;;4979644;28;20084;-75
2023/06/13 07:24:07;;;;;;;8.73;3.38;;;;;;;;;;4979330;28;20033;-76
2023/06/13 07:26:34;;;;;;;5.32;3.72;;;;;;;;;;4948570;28;20027;-76
2023/06/13 07:29:00;;;;;;;6.00;3.25;;;;;;;;;;4981669;28;20117;-75
2023/06/13 07:31:27;;;;;;;5.07;3.15;;;;;;;;;;4997644;28;20104;-78
2023/06/13 07:33:57;;;;;;;7.03;2.90;;;;;;;;;;4979547;28;20038;-76
2023/06/13 07:36:27;;;;;;;4.88;2.90;;;;;;;;;;4997721;28;20034;-76
2023/06/13 07:38:53;;;;;;;6.13;3.10;;;;;;;;;;4996225;28;20031;-76
2023/06/13 07:41:34;;;;;;;5.78;3.42;;;;;;;;;;4980709;28;20026;-75
2023/06/13 07:44:00;;;;;;;5.80;3.60;;;;;;;;;;4980038;28;20030;-74
2023/06/13 07:46:32;;;;;;;8.57;2.90;;;;;;;;;;4978556;28;20036;-77
2023/06/13 07:48:59;;;;;;;3.92;2.83;;;;;;;;;;4979913;28;20026;-76
2023/06/13 07:51:28;;;;;;;6.85;2.70;;;;;;;;;;4995945;28;20034;-77
2023/06/13 07:54:00;;;;;;;5.55;3.20;;;;;;;;;;4978045;28;20075;-75
2023/06/13 07:56:26;;;;;;;4.38;2.90;;;;;;;;;;4979359;28;20095;-76
2023/06/13 07:59:06;;;;;;;5.53;2.85;;;;;;;;;;4997460;28;20035;-77
2023/06/13 08:01:36;;;;;;;9.63;4.20;;;;;;;;;;4981396;28;20061;-79
2023/06/13 08:04:25;;;;;;;8.85;2.97;;;;;;;;;;4997448;28;20037;-77
2023/06/13 08:07:01;;;;;;;8.25;4.07;;;;;;;;;;4995324;28;20394;-78
2023/06/13 08:09:28;;;;;;;8.60;4.38;;;;;;;;;;4996728;28;20505;-76
2023/06/13 08:11:57;;;;;;;11.10;3.42;;;;;;;;;;4995943;28;20027;-76
2023/06/13 08:14:23;;;;;;;7.68;3.22;;;;;;;;;;4978427;28;20030;-77
2023/06/13 08:17:07;;;;;;;8.02;3.30;;;;;;;;;;4977274;28;20033;-76
2023/06/13 08:19:34;;;;;;;8.18;3.58;;;;;;;;;;4978416;28;20034;-78
2023/06/13 08:22:00;;;;;;;6.00;3.25;;;;;;;;;;4977472;28;20113;-76
2023/06/13 08:24:27;;;;;;;9.57;3.22;;;;;;;;;;4977716;28;20112;-77
2023/06/13 08:26:57;;;;;;;7.47;3.65;;;;;;;;;;4977428;28;20030;-78
2023/06/13 08:29:25;;;;;;;5.68;3.25;;;;;;;;;;4977335;28;20073;-76
2023/06/13 08:31:54;;;;;;;5.95;3.38;;;;;;;;;;4993317;28;20097;-77
2023/06/13 08:34:20;;;;;;;6.10;2.92;;;;;;;;;;4977684;28;20116;-78
2023/06/13 08:36:47;;;;;;;4.55;3.30;;;;;;;;;;4978083;28;20129;-78
2023/06/13 08:39:15;;;;;;;5.65;3.00;;;;;;;;;;4994780;28;20502;-76
2023/06/13 08:41:43;;;;;;;7.63;3.03;;;;;;;;;;4976677;28;20101;-77
2023/06/13 08:44:16;;;;;;;7.75;3.13;;;;;;;;;;4978271;28;20029;-77
2023/06/13 08:46:45;;;;;;;3.83;3.40;;;;;;;;;;4977829;28;20050;-78
2023/06/13 08:49:11;;;;;;;5.68;2.85;;;;;;;;;;4978058;28;20030;-75
2023/06/13 08:51:38;;;;;;;5.57;3.08;;;;;;;;;;4995987;28;20049;-77
2023/06/13 08:54:12;;;;;;;9.02;2.85;;;;;;;;;;4995173;28;20037;-78
2023/06/13 08:56:42;;;;;;;6.95;3.08;;;;;;;;;;4996067;28;20030;-78
2023/06/13 08:59:14;;;;;;;8.02;3.53;;;;;;;;;;4976755;28;20090;-78
2023/06/13 09:01:44;;;;;;;10.70;3.53;;;;;;;;;;4977744;28;20034;-76
2023/06/13 09:04:14;;;;;;;6.72;3.00;;;;;;;;;;4961980;28;20093;-77
2023/06/13 09:06:40;;;;;;;8.20;3.45;;;;;;;;;;4973722;28;20083;-76
2023/06/13 09:09:07;;;;;;;6.00;2.90;;;;;;;;;;4973201;28;20034;-77
2023/06/13 09:11:52;;;;;;;9.88;3.20;;;;;;;;;;4974987;28;20484;-77
2023/06/13 09:14:22;;;;;;;9.38;4.13;;;;;;;;;;4973324;28;20081;-78
2023/06/13 09:16:55;;;;;;;24.30;12.98;;;;;;;;;;4977572;28;20022;-77
2023/06/13 09:19:22;;;;;;;17.13;11.05;;;;;;;;;;4962328;28;20492;-77
2023/06/13 09:21:48;;;;;;;6.15;3.22;;;;;;;;;;4977936;28;20054;-77
2023/06/13 09:24:23;;;;;;;9.20;3.20;;;;;;;;;;4977475;28;20387;-76
2023/06/13 09:26:59;;;;;;;8.93;3.47;;;;;;;;;;4978689;28;20030;-76
2023/06/13 09:29:36;;;;;;;3.40;2.75;;;;;;;;;;4977963;28;20026;-77
2023/06/13 09:32:05;;;;;;;5.40;3.13;;;;;;;;;;4977908;28;20502;-76
2023/06/13 09:34:37;;;;;;;7.43;2.75;;;;;;;;;;4978411;28;20039;-76
2023/06/13 09:37:03;;;;;;;4.35;3.03;;;;;;;;;;4977623;28;20050;-76
2023/06/13 09:39:31;;;;;;;8.27;3.63;;;;;;;;;;4978817;28;20033;-76
2023/06/13 09:41:59;;;;;;;8.73;2.88;;;;;;;;;;4959728;28;20035;-78
2023/06/13 09:44:26;;;;;;;6.25;2.33;;;;;;;;;;4976454;28;20471;-76
2023/06/13 09:46:53;;;;;;;3.33;2.60;;;;;;;;;;4976127;28;20038;-77
2023/06/13 09:49:19;;;;;;;7.90;2.83;;;;;;;;;;4976795;28;20190;-77
2023/06/13 09:51:46;;;;;;;11.65;3.25;;;;;;;;;;4974965;28;20046;-77
2023/06/13 09:54:16;;;;;;;5.70;2.88;;;;;;;;;;4958824;28;20499;-77
2023/06/13 09:57:10;;;;;;;3.88;2.92;;;;;;;;;;4977418;28;20026;-77
2023/06/13 09:59:39;;;;;;;8.57;3.65;;;;;;;;;;4963585;28;20042;-78
2023/06/13 10:02:07;;;;;;;4.60;2.97;;;;;;;;;;4977160;28;20379;-80
2023/06/13 10:04:36;;;;;;;2.90;2.10;;;;;;;;;;4978443;28;20085;-77
2023/06/13 10:07:03;;;;;;;7.57;2.97;;;;;;;;;;4963315;28;20034;-77
2023/06/13 10:09:36;;;;;;;3.28;2.53;;;;;;;;;;4979609;28;20032;-76
2023/06/13 10:12:07;;;;;;;8.32;2.38;;;;;;;;;;4979811;28;20124;-77
2023/06/13 10:14:40;;;;;;;6.20;2.67;;;;;;;;;;4997037;28;20019;-76
2023/06/13 10:17:12;;;;;;;5.00;2.55;;;;;;;;;;4979350;28;20023;-77
2023/06/13 10:19:40;;;;;;;3.58;2.50;;;;;;;;;;4979023;28;20034;-77
2023/06/13 10:22:12;;;;;;;5.35;2.78;;;;;;;;;;4979032;28;20088;-77
2023/06/13 10:24:39;;;;;;;4.10;2.28;;;;;;;;;;4995519;28;20036;-75
2023/06/13 10:27:14;;;;;;;5.35;2.35;;;;;;;;;;4993822;28;20034;-78
2023/06/13 10:29:46;;;;;;;7.47;2.67;;;;;;;;;;4978635;28;20022;-77
2023/06/13 10:32:57;;;;;;;4.68;2.30;;;;;;;;;;4979263;28;20057;-76
2023/06/13 10:35:46;;;;;;;9.60;3.00;;;;;;;;;;4943548;28;20034;-79
2023/06/13 10:38:54;;;;;;;7.32;2.55;;;;;;;;;;4979109;28;20662;-78
2023/06/13 10:41:51;;;;;;;10.35;2.60;;;;;;;;;;4981512;28;20113;-80
2023/06/13 10:44:38;;;;;;;3.78;2.17;;;;;;;;;;4979578;28;20384;-78
2023/06/13 10:47:07;;;;;;;2.95;2.35;;;;;;;;;;4978397;28;20172;-76
2023/06/13 10:49:42;;;;;;;10.07;2.97;;;;;;;;;;4977961;28;20026;-77
2023/06/13 10:52:12;;;;;;;3.38;2.60;;;;;;;;;;4978372;28;20491;-78
2023/06/13 10:54:47;;;;;;;4.90;3.30;;;;;;;;;;4998421;28;20057;-77
2023/06/13 10:57:20;;;;;;;6.88;2.63;;;;;;;;;;4997602;28;20081;-77
2023/06/13 10:59:57;;;;;;;5.35;2.70;;;;;;;;;;4979683;28;20140;-79
2023/06/13 11:02:27;;;;;;;5.20;2.80;;;;;;;;;;4997419;28;20122;-76
2023/06/13 11:05:03;;;;;;;3.65;2.58;;;;;;;;;;4998289;28;20061;-76
2023/06/13 11:07:33;;;;;;;4.25;2.97;;;;;;;;;;4979828;28;20061;-76
2023/06/13 11:10:14;;;;;;;6.72;3.15;;;;;;;;;;4979292;28;20549;-77
2023/06/13 11:12:41;;;;;;;;;;;;;;;;;;4979128;28;20075;-76
2023/06/13 11:15:32;;;;;;;6.90;4.88;;;;;;;;;;4981882;28;19972;-76
2023/06/13 11:18:20;;;;;;;6.85;2.67;;;;;;;;;;4990650;28;20093;-77
2023/06/13 11:21:01;;;;;;;6.38;3.17;;;;;;;;;;4983877;28;20027;-77
2023/06/13 11:23:35;;;;;;;6.03;2.90;;;;;;;;;;4984931;28;20462;-76
2023/06/13 11:26:05;;;;;;;5.38;3.22;;;;;;;;;;4989127;28;20030;-78
2023/06/13 11:28:32;;;;;;;6.38;2.80;;;;;;;;;;5005301;28;20026;-75
2023/06/13 11:31:07;;;;;;;7.90;2.90;;;;;;;;;;4981222;28;20121;-77
2023/06/13 11:33:43;;;;;;;4.85;2.65;;;;;;;;;;4978939;28;20030;-77
2023/06/13 11:36:10;;;;;;;4.30;3.22;;;;;;;;;;4994596;28;20023;-79
2023/06/13 11:38:44;;;;;;;5.30;2.97;;;;;;;;;;4978693;28;20034;-77
2023/06/13 11:41:17;;;;;;;9.40;2.67;;;;;;;;;;4977464;28;20056;-77
2023/06/13 11:43:46;;;;;;;5.43;3.00;;;;;;;;;;4978329;28;20034;-76
2023/06/13 11:46:13;;;;;;;6.65;2.78;;;;;;;;;;4995242;28;20035;-76
2023/06/13 11:48:38;;;;;;;6.78;2.55;;;;;;;;;;4977823;28;20030;-77
2023/06/13 11:51:11;;;;;;;5.13;2.33;;;;;;;;;;4993414;28;20180;-77
2023/06/13 11:53:52;;;;;;;4.13;2.50;;;;;;;;;;4994916;28;20382;-76
2023/06/13 11:56:23;;;;;;;4.47;2.88;;;;;;;;;;4994392;28;20532;-74
2023/06/13 11:58:51;;;;;;;3.38;2.85;;;;;;;;;;4995013;28;20378;-77
2023/06/13 12:01:21;;;;;;;5.68;2.20;;;;;;;;;;4961898;28;20053;-77
2023/06/13 12:03:49;;;;;;;2.85;1.75;;;;;;;;;;4978779;28;20031;-76
2023/06/13 12:06:23;;;;;;;4.88;2.53;;;;;;;;;;4962642;28;20145;-78
2023/06/13 12:08:51;;;;;;;6.72;2.70;;;;;;;;;;4977357;28;20034;-77
2023/06/13 12:11:29;;;;;;;4.93;2.70;;;;;;;;;;4994491;28;20726;-76
2023/06/13 12:13:57;;;;;;;4.78;2.40;;;;;;;;;;4976475;28;20026;-78
2023/06/13 12:16:49;;;;;;;5.22;2.42;;;;;;;;;;4961495;28;20125;-78
2023/06/13 12:19:19;;;;;;;5.55;2.22;;;;;;;;;;4994347;28;20158;-78
2023/06/13 12:21:45;;;;;;;8.40;2.90;;;;;;;;;;4977874;28;20027;-76
2023/06/13 12:24:16;;;;;;;5.95;2.20;;;;;;;;;;4977814;28;20495;-78
2023/06/13 12:26:43;;;;;;;;;;;;;;;;;;4978388;28;20033;-77
2023/06/13 12:29:16;;;;;;;4.20;2.40;;;;;;;;;;4996521;28;19909;-78
2023/06/13 12:31:50;;;;;;;6.38;2.65;;;;;;;;;;4971921;28;20026;-78
2023/06/13 12:34:36;;;;;;;4.85;2.30;;;;;;;;;;4961793;28;20077;-76
2023/06/13 12:37:08;;;;;;;6.45;2.88;;;;;;;;;;4977887;28;20062;-77
2023/06/13 12:39:35;;;;;;;6.18;3.05;;;;;;;;;;4977620;28;20223;-77
2023/06/13 12:42:07;;;;;;;10.15;2.95;;;;;;;;;;4976238;28;20072;-77
2023/06/13 12:44:34;;;;;;;8.38;3.33;;;;;;;;;;4976725;28;20031;-78
2023/06/13 12:47:04;;;;;;;7.25;3.38;;;;;;;;;;4977726;28;20113;-78
2023/06/13 12:49:40;;;;;;;5.43;3.20;;;;;;;;;;4977459;28;20034;-79
2023/06/13 12:52:16;;;;;;;4.55;2.80;;;;;;;;;;4982017;28;20399;-77
2023/06/13 12:54:45;;;;;;;5.00;3.42;;;;;;;;;;4965392;28;20042;-76
2023/06/13 12:57:16;;;;;;;4.72;2.85;;;;;;;;;;4981330;28;20030;-76
2023/06/13 12:59:45;;;;;;;;;;;;;;;;;;4981897;28;20026;-77
2023/06/13 13:02:14;;;;;;;6.38;3.30;;;;;;;;;;4980262;28;19913;-76
2023/06/13 13:04:44;;;;;;;6.40;3.00;;;;;;;;;;4980351;28;20030;-77
2023/06/13 13:07:15;;;;;;;14.05;3.65;;;;;;;;;;4980027;28;20046;-76
2023/06/13 13:09:44;;;;;;;9.68;2.78;;;;;;;;;;4966464;28;20042;-77
2023/06/13 13:12:17;;;;;;;6.22;3.30;;;;;;;;;;4980886;28;20065;-78
2023/06/13 13:14:44;;;;;;;8.43;3.17;;;;;;;;;;4981291;28;20030;-77
2023/06/13 13:17:11;;;;;;;18.90;3.70;;;;;;;;;;4996915;28;20036;-77
2023/06/13 13:19:37;;;;;;;10.95;3.30;;;;;;;;;;4979417;28;20030;-78
2023/06/13 13:22:05;;;;;;;7.95;3.20;;;;;;;;;;4979948;28;20115;-77
2023/06/13 13:24:40;;;;;;;15.45;4.03;;;;;;;;;;4980866;28;20037;-77
2023/06/13 13:27:10;;;;;;;7.22;3.83;;;;;;;;;;4965362;28;20201;-77
2023/06/13 13:29:36;;;;;;;11.05;3.95;;;;;;;;;;4981764;28;20530;-75
2023/06/13 13:32:03;;;;;;;11.70;3.65;;;;;;;;;;4981416;28;20039;-77
2023/06/13 13:34:29;;;;;;;12.23;3.53;;;;;;;;;;4980829;28;20038;-76
2023/06/13 13:36:56;;;;;;;9.93;3.53;;;;;;;;;;4980612;28;20036;-77
2023/06/13 13:39:30;;;;;;;12.63;3.58;;;;;;;;;;4981077;28;20026;-75
2023/06/13 13:42:02;;;;;;;8.43;3.60;;;;;;;;;;4998483;28;20354;-76
2023/06/13 13:44:47;;;;;;;69.53;9.18;;;;;;;;;;4981696;28;20534;-76
2023/06/13 13:47:21;;;;;;;11.13;3.60;;;;;;;;;;4982590;28;20029;-76
2023/06/13 13:49:48;;;;;;;8.68;3.53;;;;;;;;;;4982344;28;20391;-77
2023/06/13 13:52:15;;;;;;;40.50;7.22;;;;;;;;;;4999700;28;20463;-76
2023/06/13 13:54:44;;;;;;;11.70;3.88;;;;;;;;;;4980279;28;20510;-76
2023/06/13 13:57:19;;;;;;;7.70;3.72;;;;;;;;;;4998616;28;20050;-76
2023/06/13 13:59:49;;;;;;;18.02;5.28;;;;;;;;;;4980750;28;20030;-75
2023/06/13 14:02:17;;;;;;;14.18;3.53;;;;;;;;;;4979281;28;20037;-75
2023/06/13 14:04:43;;;;;;;9.90;4.22;;;;;;;;;;4996928;28;20030;-75
2023/06/13 14:07:12;;;;;;;17.00;4.28;;;;;;;;;;4997689;28;20034;-76
2023/06/13 14:09:40;;;;;;;10.05;3.00;;;;;;;;;;4979548;28;20116;-76
2023/06/13 14:12:07;;;;;;;3.70;3.13;;;;;;;;;;4979782;28;20043;-76
2023/06/13 14:14:34;;;;;;;5.68;3.15;;;;;;;;;;4978561;28;20026;-76
2023/06/13 14:17:01;;;;;;;3.50;2.75;;;;;;;;;;4978811;28;20058;-77
2023/06/13 14:19:34;;;;;;;5.78;3.10;;;;;;;;;;4978647;28;20045;-76
2023/06/13 14:22:03;;;;;;;14.73;4.47;;;;;;;;;;4979812;28;20367;-76
2023/06/13 14:24:35;;;;;;;6.22;3.50;;;;;;;;;;4978875;28;20038;-78
2023/06/13 14:27:01;;;;;;;6.43;3.10;;;;;;;;;;4978933;28;20065;-76
2023/06/13 14:29:29;;;;;;;12.02;3.95;;;;;;;;;;4997577;28;20052;-76
2023/06/13 14:31:55;;;;;;;6.20;3.28;;;;;;;;;;4979465;28;20058;-77
2023/06/13 14:34:23;;;;;;;8.45;3.00;;;;;;;;;;4978901;28;20514;-77
2023/06/13 14:36:58;;;;;;;5.75;3.75;;;;;;;;;;4997019;28;20041;-77
2023/06/13 14:39:29;;;;;;;8.57;3.78;;;;;;;;;;4978993;28;20026;-77
2023/06/13 14:41:55;;;;;;;9.60;3.67;;;;;;;;;;4996095;28;20022;-77
2023/06/13 14:44:21;;;;;;;5.18;3.97;;;;;;;;;;4995654;28;20566;-79
2023/06/13 14:46:53;;;;;;;10.10;4.03;;;;;;;;;;4996681;28;20026;-75
2023/06/13 14:49:19;;;;;;;17.13;7.00;;;;;;;;;;4978548;28;20034;-77
2023/06/13 14:51:49;;;;;;;10.32;4.80;;;;;;;;;;4978481;28;20026;-79
2023/06/13 14:54:21;;;;;;;4.43;3.42;;;;;;;;;;4979083;28;20357;-78
2023/06/13 14:56:47;;;;;;;5.55;3.92;;;;;;;;;;4979516;28;20080;-77
2023/06/13 14:59:16;;;;;;;12.75;4.60;;;;;;;;;;4996269;28;20084;-76